Tiempo atmosférico en la estación meteorológica de Villayón, Oneta, Asturias (410 m.)



Fecha
DESCASC
Temp. máxima en grados centígrados (hora)
DESCASC
Temp. mínima en grados centígrados (hora)
DESCASC
Temp. media en grados centígrados
DESCASC
Racha de viento máxima en m/sg (hora)
DESCASC
Velocidad máxima media en intervalos de 10 minutos(hora)
DESCASC
Precipitaciones diarias en mm
DESCASC
Precipitaciones de 00:00 a 06:00 en mm
DESCASC
Precipitaciones de 06:00 a 12:00 en mm
DESCASC
Precipitaciones de 12:00 a 18:00 en mm
DESCASC
Precipitaciones de 18:00 a 24:00 en mm
DESCASC
04-05-2020 28.2 (11:30) 14.2 (00:00) 21.2 24.44 (16:30) 14.72 (16:30) 6.4 0 0 5.8 0.6
09-05-2020 15.2 (13:10) 11.9 (00:00) 13.5 7.22 (13:40) 4.72 (14:20) 7.8 0 0.2 3.6 4
14-05-2020 11.3 (02:10) 9.3 (00:00) 10.3 11.67 (13:10) 7.78 (06:30) 3.4 0 0.6 1.2 1.6
31-05-2020 22.2 (11:20) 14.7 (00:00) 18.5 10.28 (07:50) 5.28 (10:00) 2.8 0 1.8 1 0
19-05-2020 21.4 (17:00) 9.7 (00:00) 15.5 5 (15:10) 2.78 (14:20) 0 0 0 0 0
17-05-2020 18.5 (16:10) 8.6 (00:00) 13.6 8.33 (02:50) 6.11 (02:50) 0 0 0 0 0
20-05-2020 20.5 (13:20) 11.1 (00:00) 15.8 8.89 (18:10) 6.11 (18:10) 0 0 0 0 0
21-05-2020 23.3 (16:20) 10.2 (00:00) 16.7 6.67 (18:50) 3.89 (19:30) 0 0 0 0 0
22-05-2020 21.9 (11:40) 11.5 (00:00) 16.7 12.22 (13:30) 8.33 (13:30) 0.8 0 0 0 0.8
23-05-2020 15.6 (14:10) 10.5 (00:00) 13.1 8.89 (20:10) 5.83 (16:40) 0.4 0.4 0 0 0
24-05-2020 18.8 (14:40) 11.2 (00:00) 15 13.06 (07:10) 8.89 (07:10) 0 0 0 0 0
25-05-2020 19.5 (12:40) 11.1 (00:00) 15.3 12.22 (17:20) 8.61 (16:50) 0 0 0 0 0
26-05-2020 21.2 (13:10) 11 (00:00) 16.1 15.56 (12:50) 9.17 (04:20) 0 0 0 0 0
27-05-2020 25.4 (16:10) 13.7 (00:00) 19.5 12.22 (00:20) 8.61 (00:20) 0 0 0 0 0
28-05-2020 28.8 (16:20) 15.4 (00:00) 22.1 4.17 (14:20) 3.06 (09:20) 0 0 0 0 0
29-05-2020 24.9 (14:10) 16 (00:00) 20.4 5.28 (13:20) 3.06 (13:20) 0 0 0 0 0
30-05-2020 22.7 (14:40) 14.5 (00:00) 18.6 5.83 (14:50) 3.33 (16:40) 0 0 0 0 0
18-05-2020 20.1 (16:50) 10.9 (00:00) 15.5 5.28 (14:40) 3.06 (13:40) 0 0 0 0 0
02-05-2020 21.5 (17:20) 13.9 (00:00) 17.7 13.61 (02:50) 6.11 (05:00) 0 0 0 0 0
16-05-2020 14.6 (11:30) 8.6 (00:00) 11.6 10 (10:30) 6.94 (10:30) 0 0 0 0 0
15-05-2020 10.8 (12:30) 9.3 (00:00) 10.1 12.5 (05:50) 8.89 (05:50) 3.6 1.8 1.8 0 0
13-05-2020 13.8 (14:30) 9 (00:00) 11.4 8.06 (22:40) 5.56 (02:20) 0 0 0 0 0
12-05-2020 12.6 (14:00) 9.2 (00:00) 10.9 10.83 (19:30) 7.78 (19:10) 0.4 0 0 0 0.4
11-05-2020 16.8 (14:30) 9.7 (00:00) 13.2 8.89 (22:10) 6.39 (15:10) 0 0 0 0 0
10-05-2020 14.8 (17:40) 10.6 (00:00) 12.7 5.56 (19:00) 4.17 (19:10) 14.4 4 10.4 0 0
08-05-2020 16.4 (09:50) 12.1 (00:00) 14.3 8.33 (07:30) 5 (19:40) 11.6 7 0.8 0 3.8
07-05-2020 18.2 (17:40) 11.6 (00:00) 14.9 7.5 (21:00) 4.44 (21:00) 0 0 0 0 0
06-05-2020 20.5 (14:50) 12.3 (00:00) 16.4 9.44 (15:40) 6.94 (16:10) 0 0 0 0 0
05-05-2020 22.6 (16:00) 12.8 (00:00) 17.7 12.22 (03:10) 5.83 (12:40) 0 0 0 0 0
03-05-2020 21 (15:40) 12.4 (00:00) 16.7 5.56 (15:10) 3.61 (16:00) 0 0 0 0 0

Gráficas

Temp. máximas Temp. mínimas Temp. medias Precipitaciones Rachas de viento máximas Velocidades máximas media en intervalos de 10 minutos

Datos horarios

Fecha y hora oficial Temperatura (ºC) Velocidad del viento (km/h) Dirección del viento Racha (km/h) Dirección de racha Precipitación (mm) Presión (hPa) Tendencia (hPa) Humedad (%)
2020-05-31 23:00:00 17.1 0 Calma 15 Sudoeste 0 -- -- 96
2020-05-31 22:00:00 18 3 Norte 12 Este 0 -- -- 83
2020-05-31 21:00:00 15.9 2 Noroeste 6 Noroeste 0 -- -- 100
2020-05-31 20:00:00 17.7 3 Noroeste 13 Oeste 0 -- -- 95
2020-05-31 19:00:00 20.2 9 Noroeste 13 Noroeste 0 -- -- 89
2020-05-31 18:00:00 21.3 9 Noroeste 15 Noroeste 0 -- -- 87
2020-05-31 17:00:00 20.4 6 Noroeste 12 Noroeste 0 -- -- 90
2020-05-31 16:00:00 19.8 4 Noroeste 14 Sudoeste 0 -- -- 90
2020-05-31 15:00:00 18.9 8 Sur 23 Este 0.4 -- -- 81
2020-05-31 14:00:00 18 4 Nordeste 24 Sur 0.6 -- -- 84
2020-05-31 13:00:00 18.8 9 Sudeste 28 Noroeste 0 -- -- 89
2020-05-31 12:00:00 19.2 18 Noroeste 27 Noroeste 0 -- -- 85
2020-05-31 11:00:00 21.7 9 Este 20 Este 0 -- -- 64
2020-05-31 10:00:00 19 19 Sudeste 36 Sudeste 0.4 -- -- 67
2020-05-31 09:00:00 17.6 10 Sur 22 Sur 0 -- -- 84
2020-05-31 08:00:00 16.9 10 Sur 37 Sur 1.4 -- -- 88
2020-05-31 07:00:00 16.8 5 Sudoeste 17 Sudoeste 0 -- -- 90
2020-05-31 06:00:00 15.8 3 Sudeste 5 Sudeste 0 -- -- 99
2020-05-31 05:00:00 16.3 3 Oeste 8 Este 0 -- -- 95
2020-05-31 04:00:00 16.2 5 Sudeste 6 Sudeste 0 -- -- 96
2020-05-31 03:00:00 16.9 2 Sur 4 Sudeste 0 -- -- 95
2020-05-31 02:00:00 16.8 0 Calma 4 Sudeste 0 -- -- 95
2020-05-31 01:00:00 16.9 0 Calma 7 Este 0 -- -- 97
2020-05-31 00:00:00 16.7 2 Este 5 Sudeste 0 -- -- 98
2020-05-30 23:00:00 16.5 2 Este 4 Este 0 -- -- 100
2020-05-30 22:00:00 16.8 0 Calma 6 Noroeste 0 -- -- 95
2020-05-30 21:00:00 18.6 5 Noroeste 12 Noroeste 0 -- -- 89
2020-05-30 20:00:00 20.2 6 Noroeste 13 Noroeste 0 -- -- 84
2020-05-30 19:00:00 21.2 8 Noroeste 15 Noroeste 0 -- -- 79
2020-05-30 18:00:00 21.4 9 Noroeste 17 Noroeste 0 -- -- 78
2020-05-30 17:00:00 21.9 9 Noroeste 18 Noroeste 0 -- -- 76
2020-05-30 16:00:00 22.2 10 Noroeste 20 Noroeste 0 -- -- 75
2020-05-30 15:00:00 22.5 10 Noroeste 21 Noroeste 0 -- -- 74
2020-05-30 14:00:00 22.2 9 Noroeste 17 Noroeste 0 -- -- 77
2020-05-30 13:00:00 21.4 10 Noroeste 15 Noroeste 0 -- -- 78
2020-05-30 12:00:00 20.7 8 Noroeste 13 Noroeste 0 -- -- 82
2020-05-30 11:00:00 19.4 6 Noroeste 8 Noroeste 0 -- -- 78
2020-05-30 10:00:00 18.5 3 Noroeste 5 Noroeste 0 -- -- 78
2020-05-30 09:00:00 18 2 Nordeste 5 Este 0 -- -- 81
2020-05-30 08:00:00 15.4 3 Oeste 8 Oeste 0 -- -- 85
2020-05-30 07:00:00 14.7 2 Sudoeste 8 Sudoeste 0 -- -- 85
2020-05-30 06:00:00 14.8 0 Calma 8 Este 0 -- -- 86
2020-05-30 05:00:00 16.4 2 Sur 6 Sudoeste 0 -- -- 77
2020-05-30 04:00:00 16.2 0 Calma 4 Sudeste 0 -- -- 78
2020-05-30 03:00:00 17.2 5 Sur 7 Sur 0 -- -- 73
2020-05-30 02:00:00 17.7 4 Sudeste 9 Sur 0 -- -- 70
2020-05-30 01:00:00 15.5 2 Oeste 8 Nordeste 0 -- -- 94
2020-05-30 00:00:00 19.3 3 Este 7 Este 0 -- -- 63
2020-05-29 23:00:00 16.6 3 Sur 8 Sudeste 0 -- -- 93
2020-05-29 22:00:00 16.4 3 Sudoeste 5 Sudoeste 0 -- -- 98
2020-05-29 21:00:00 19 4 Noroeste 12 Noroeste 0 -- -- 91
2020-05-29 20:00:00 20.8 5 Noroeste 12 Noroeste 0 -- -- 85
2020-05-29 19:00:00 21.3 8 Noroeste 15 Noroeste 0 -- -- 82
2020-05-29 18:00:00 22.5 10 Noroeste 18 Noroeste 0 -- -- 80
2020-05-29 17:00:00 23.1 10 Noroeste 15 Noroeste 0 -- -- 77
2020-05-29 16:00:00 23.6 9 Noroeste 17 Noroeste 0 -- -- 73
2020-05-29 15:00:00 24.6 8 Noroeste 17 Noroeste 0 -- -- 68
2020-05-29 14:00:00 24.6 8 Noroeste 19 Noroeste 0 -- -- 65
2020-05-29 13:00:00 24 10 Oeste 17 Noroeste 0 -- -- 70
2020-05-29 12:00:00 23.6 8 Noroeste 13 Noroeste 0 -- -- 66
2020-05-29 11:00:00 22.5 5 Noroeste 8 Noroeste 0 -- -- 68
2020-05-29 10:00:00 22.7 5 Sur 8 Sudoeste 0 -- -- 64
2020-05-29 09:00:00 20.9 2 Sur 6 Sur 0 -- -- 69
2020-05-29 08:00:00 18.9 0 Calma 2 Este 0 -- -- 73
2020-05-29 07:00:00 17.9 0 Calma 5 Sudeste 0 -- -- 74
2020-05-29 06:00:00 18.7 2 Este 6 Este 0 -- -- 73
2020-05-29 05:00:00 18.4 0 Calma 5 Noroeste 0 -- -- 75
2020-05-29 04:00:00 19.2 0 Calma 4 Este 0 -- -- 72
2020-05-29 03:00:00 19.7 3 Sudeste 5 Este 0 -- -- 71
2020-05-29 02:00:00 19.9 0 Calma 3 Este 0 -- -- 73
2020-05-29 01:00:00 20.4 0 Calma 5 Este 0 -- -- 76
2020-05-29 00:00:00 21 3 Sudeste 6 Este 0 -- -- 71
2020-05-28 23:00:00 21 3 Sur 6 Sur 0 -- -- 77
2020-05-28 22:00:00 22 0 Calma 5 Oeste 0 -- -- 78
2020-05-28 21:00:00 24.6 0 Calma 5 Noroeste 0 -- -- 69
2020-05-28 20:00:00 26.2 2 Noroeste 14 Noroeste 0 -- -- 65
2020-05-28 19:00:00 27 8 Noroeste 13 Noroeste 0 -- -- 63
2020-05-28 18:00:00 27.9 6 Noroeste 14 Noroeste 0 -- -- 64
2020-05-28 17:00:00 28.2 7 Noroeste 14 Noroeste 0 -- -- 61
2020-05-28 16:00:00 28.3 8 Noroeste 15 Oeste 0 -- -- 59
2020-05-28 15:00:00 27.9 6 Noroeste 15 Oeste 0 -- -- 61
2020-05-28 14:00:00 27.7 7 Noroeste 15 Oeste 0 -- -- 63
2020-05-28 13:00:00 26.8 8 Noroeste 13 Noroeste 0 -- -- 63
2020-05-28 12:00:00 27.8 3 Noroeste 11 Norte 0 -- -- 58
2020-05-28 11:00:00 25.4 3 Oeste 8 Sudeste 0 -- -- 63
2020-05-28 10:00:00 23.1 6 Sur 14 Sudoeste 0 -- -- 64
2020-05-28 09:00:00 22.3 3 Sur 4 Sur 0 -- -- 73
2020-05-28 08:00:00 20.7 2 Este 10 Sudoeste 0 -- -- 70
2020-05-28 07:00:00 18.3 9 Sudoeste 13 Sudoeste 0 -- -- 79
2020-05-28 06:00:00 17.9 0 Calma 5 Este 0 -- -- 81
2020-05-28 05:00:00 17.2 0 Calma 4 Este 0 -- -- 85
2020-05-28 04:00:00 17.3 0 Calma 6 Este 0 -- -- 84
2020-05-28 03:00:00 16.3 0 Calma 8 Sur 0 -- -- 88
2020-05-28 02:00:00 15.5 4 Sur 13 Norte 0 -- -- 93
2020-05-28 01:00:00 17.6 4 Nordeste 13 Nordeste 0 -- -- 83
2020-05-28 00:00:00 19.5 5 Norte 17 Este 0 -- -- 73
2020-05-27 23:00:00 17.4 3 Oeste 10 Oeste 0 -- -- 84
2020-05-27 22:00:00 17.2 2 Sudoeste 8 Noroeste 0 -- -- 89
2020-05-27 21:00:00 18.5 7 Noroeste 13 Noroeste 0 -- -- 85
2020-05-27 20:00:00 19.8 9 Noroeste 14 Noroeste 0 -- -- 80
2020-05-27 19:00:00 21.3 10 Noroeste 17 Noroeste 0 -- -- 77
2020-05-27 18:00:00 22.3 11 Noroeste 19 Noroeste 0 -- -- 72
2020-05-27 17:00:00 24.1 9 Oeste 18 Oeste 0 -- -- 68
2020-05-27 16:00:00 25.2 7 Norte 30 Este 0 -- -- 64
2020-05-27 15:00:00 24.3 15 Nordeste 30 Nordeste 0 -- -- 56
2020-05-27 14:00:00 24.1 12 Nordeste 29 Sur 0 -- -- 56
2020-05-27 13:00:00 22.3 12 Noroeste 39 Este 0 -- -- 65
2020-05-27 12:00:00 22.9 18 Nordeste 36 Este 0 -- -- 53
2020-05-27 11:00:00 19.7 10 Nordeste 27 Este 0 -- -- 68
2020-05-27 10:00:00 16.4 4 Noroeste 10 Noroeste 0 -- -- 80
2020-05-27 09:00:00 15.6 5 Sudeste 15 Este 0 -- -- 81
2020-05-27 08:00:00 16.8 3 Oeste 23 Sudeste 0 -- -- 71
2020-05-27 07:00:00 15.5 10 Sudeste 19 Este 0 -- -- 77
2020-05-27 06:00:00 15.4 6 Sur 14 Sur 0 -- -- 73
2020-05-27 05:00:00 14.7 6 Sudoeste 21 Sudeste 0 -- -- 78
2020-05-27 04:00:00 13.8 3 Sudeste 14 Sudeste 0 -- -- 86
2020-05-27 03:00:00 14.8 11 Sudeste 44 Este 0 -- -- 78
2020-05-27 02:00:00 15.6 15 Este 34 Este 0 -- -- 77
2020-05-27 01:00:00 16.1 20 Este 44 Este 0 -- -- 75
2020-05-27 00:00:00 16.1 32 Sudeste 50 Este 0 -- -- 76
2020-05-26 23:00:00 16.4 30 Este 43 Este 0 -- -- 75
2020-05-26 22:00:00 16.7 24 Este 37 Este 0 -- -- 77
2020-05-26 21:00:00 17.1 14 Este 31 Este 0 -- -- 81
2020-05-26 20:00:00 17.5 22 Este 34 Este 0 -- -- 81
2020-05-26 19:00:00 18.3 23 Este 39 Este 0 -- -- 79
2020-05-26 18:00:00 18.7 20 Nordeste 40 Nordeste 0 -- -- 76
2020-05-26 17:00:00 18.8 24 Nordeste 44 Este 0 -- -- 75
2020-05-26 16:00:00 19.6 28 Nordeste 49 Nordeste 0 -- -- 67
2020-05-26 15:00:00 20 29 Nordeste 44 Nordeste 0 -- -- 65
2020-05-26 14:00:00 20.8 24 Nordeste 42 Nordeste 0 -- -- 61
2020-05-26 13:00:00 21 24 Este 56 Este 0 -- -- 59
2020-05-26 12:00:00 20.2 23 Nordeste 41 Nordeste 0 -- -- 58
2020-05-26 11:00:00 19.5 19 Este 34 Este 0 -- -- 57
2020-05-26 10:00:00 17.3 7 Este 23 Sudeste 0 -- -- 65
2020-05-26 09:00:00 14.8 3 Sur 14 Sudeste 0 -- -- 79
2020-05-26 08:00:00 13.1 5 Sudeste 14 Este 0 -- -- 80
2020-05-26 07:00:00 12 2 Nordeste 16 Sudeste 0 -- -- 84
2020-05-26 06:00:00 14.5 8 Sudeste 39 Este 0 -- -- 70
2020-05-26 05:00:00 14.6 21 Este 51 Este 0 -- -- 69
2020-05-26 04:00:00 14.3 30 Este 51 Este 0 -- -- 69
2020-05-26 03:00:00 13.4 23 Este 44 Este 0 -- -- 69
2020-05-26 02:00:00 13.7 26 Este 47 Este 0 -- -- 72
2020-05-26 01:00:00 13.6 18 Este 39 Este 0 -- -- 73
2020-05-26 00:00:00 14 17 Este 34 Este 0 -- -- 75
2020-05-25 23:00:00 14.3 9 Este 32 Este 0 -- -- 75
2020-05-25 22:00:00 14.6 19 Este 31 Este 0 -- -- 80
2020-05-25 21:00:00 16.1 19 Nordeste 40 Nordeste 0 -- -- 74
2020-05-25 20:00:00 16.9 19 Nordeste 34 Este 0 -- -- 73
2020-05-25 19:00:00 17.6 22 Nordeste 43 Nordeste 0 -- -- 69
2020-05-25 18:00:00 18 24 Nordeste 44 Nordeste 0 -- -- 64
2020-05-25 17:00:00 18.6 29 Nordeste 42 Nordeste 0 -- -- 64
2020-05-25 16:00:00 18.6 27 Nordeste 40 Nordeste 0 -- -- 67
2020-05-25 15:00:00 19.1 23 Nordeste 33 Nordeste 0 -- -- 70
2020-05-25 14:00:00 19.4 16 Norte 31 Nordeste 0 -- -- 74
2020-05-25 13:00:00 19.5 19 Nordeste 30 Nordeste 0 -- -- 69
2020-05-25 12:00:00 18.7 16 Nordeste 32 Nordeste 0 -- -- 74
2020-05-25 11:00:00 17.8 12 Nordeste 28 Nordeste 0 -- -- 71
2020-05-25 10:00:00 16.4 9 Noroeste 28 Este 0 -- -- 79
2020-05-25 09:00:00 14.8 14 Sudeste 28 Este 0 -- -- 82
2020-05-25 08:00:00 13 8 Este 36 Este 0 -- -- 88
2020-05-25 07:00:00 12.5 15 Este 28 Este 0 -- -- 92
2020-05-25 06:00:00 12.4 13 Nordeste 26 Nordeste 0 -- -- 96
2020-05-25 05:00:00 11.5 4 Noroeste 14 Norte 0 -- -- 100
2020-05-25 04:00:00 12.2 5 Norte 17 Nordeste 0 -- -- 100
2020-05-25 03:00:00 11.5 0 Calma 4 Noroeste 0 -- -- 100
2020-05-25 02:00:00 11.3 2 Oeste 6 Sudeste 0 -- -- 100
2020-05-25 01:00:00 11.2 2 Oeste 10 Este 0 -- -- 100
2020-05-25 00:00:00 11.6 3 Sudeste 24 Sudeste 0 -- -- 98
2020-05-24 23:00:00 13.7 14 Este 30 Este 0 -- -- 91
2020-05-24 22:00:00 13.7 19 Este 30 Este 0 -- -- 92
2020-05-24 21:00:00 14.7 11 Este 35 Este 0 -- -- 88
2020-05-24 20:00:00 15.8 12 Este 32 Este 0 -- -- 84
2020-05-24 19:00:00 15.7 21 Este 36 Este 0 -- -- 85
2020-05-24 18:00:00 18 11 Sudeste 26 Este 0 -- -- 77
2020-05-24 17:00:00 17.1 17 Este 36 Este 0 -- -- 80
2020-05-24 16:00:00 18.2 25 Este 38 Este 0 -- -- 74
2020-05-24 15:00:00 18.6 21 Este 37 Este 0 -- -- 71
2020-05-24 14:00:00 18.2 18 Este 32 Este 0 -- -- 70
2020-05-24 13:00:00 18.1 15 Este 38 Este 0 -- -- 68
2020-05-24 12:00:00 16.6 20 Este 36 Este 0 -- -- 71
2020-05-24 11:00:00 15.2 27 Este 44 Este 0 -- -- 71
2020-05-24 10:00:00 14 26 Este 45 Este 0 -- -- 71
2020-05-24 09:00:00 12.9 21 Este 47 Este 0 -- -- 78
2020-05-24 08:00:00 11.6 25 Este 47 Este 0 -- -- 80
2020-05-24 07:00:00 11.3 31 Este 45 Este 0 -- -- 82
2020-05-24 06:00:00 11.3 24 Este 44 Este 0 -- -- 86
2020-05-24 05:00:00 11.6 24 Este 39 Este 0 -- -- 87
2020-05-24 04:00:00 12 24 Este 40 Este 0 -- -- 87
2020-05-24 03:00:00 12 24 Este 41 Este 0 -- -- 90
2020-05-24 02:00:00 12.1 19 Este 41 Este 0 -- -- 91
2020-05-24 01:00:00 12.3 11 Este 32 Este 0 -- -- 90
2020-05-24 00:00:00 12.3 16 Nordeste 32 Este 0 -- -- 91
2020-05-23 23:00:00 12.3 13 Nordeste 24 Nordeste 0 -- -- 93
2020-05-23 22:00:00 12.4 13 Nordeste 27 Nordeste 0 -- -- 93
2020-05-23 21:00:00 12.7 15 Nordeste 32 Nordeste 0 -- -- 93
2020-05-23 20:00:00 12.9 18 Nordeste 32 Nordeste 0 -- -- 92
2020-05-23 19:00:00 12.7 16 Nordeste 30 Nordeste 0 -- -- 93
2020-05-23 18:00:00 13.1 19 Nordeste 31 Nordeste 0 -- -- 90
2020-05-23 17:00:00 13.5 17 Nordeste 30 Nordeste 0 -- -- 90
2020-05-23 16:00:00 13.6 18 Nordeste 26 Nordeste 0 -- -- 90
2020-05-23 15:00:00 13.5 13 Nordeste 26 Nordeste 0 -- -- 88
2020-05-23 14:00:00 15.2 12 Nordeste 23 Nordeste 0 -- -- 85
2020-05-23 13:00:00 14.1 12 Norte 19 Nordeste 0 -- -- 87
2020-05-23 12:00:00 13.6 14 Este 22 Este 0 -- -- 82
2020-05-23 11:00:00 13.5 8 Noroeste 15 Noroeste 0 -- -- 93
2020-05-23 10:00:00 12.5 5 Noroeste 8 Noroeste 0 -- -- 99
2020-05-23 09:00:00 11.7 3 Noroeste 5 Sudeste 0 -- -- 100
2020-05-23 08:00:00 10.8 2 Noroeste 9 Sudeste 0 -- -- 100
2020-05-23 07:00:00 10.6 6 Noroeste 14 Norte 0 -- -- 100
2020-05-23 06:00:00 10.5 5 Noroeste 18 Noroeste 0.4 -- -- 100
2020-05-23 05:00:00 11.3 4 Noroeste 13 Noroeste 0 -- -- 99
2020-05-23 04:00:00 11.6 4 Este 8 Este 0 -- -- 94
2020-05-23 03:00:00 11.8 4 Sur 6 Sur 0 -- -- 95
2020-05-23 02:00:00 12 0 Calma 4 Norte 0 -- -- 91
2020-05-23 01:00:00 11.8 0 Calma 8 Este 0 -- -- 99
2020-05-23 00:00:00 11.5 6 Este 12 Noroeste 0 -- -- 100
2020-05-22 23:00:00 11.9 6 Noroeste 11 Oeste 0.6 -- -- 100
2020-05-22 22:00:00 12.1 4 Oeste 12 Noroeste 0.2 -- -- 100
2020-05-22 21:00:00 12.4 3 Noroeste 17 Noroeste 0 -- -- 100
2020-05-22 20:00:00 12.9 10 Noroeste 15 Noroeste 0 -- -- 100
2020-05-22 19:00:00 13.2 9 Noroeste 17 Noroeste 0 -- -- 100
2020-05-22 18:00:00 13.7 12 Noroeste 21 Noroeste 0 -- -- 100
2020-05-22 17:00:00 13.6 13 Noroeste 22 Noroeste 0 -- -- 100
2020-05-22 16:00:00 14 11 Noroeste 22 Noroeste 0 -- -- 100
2020-05-22 15:00:00 14.9 11 Noroeste 28 Noroeste 0 -- -- 98
2020-05-22 14:00:00 16.5 24 Noroeste 44 Noroeste 0 -- -- 89
2020-05-22 13:00:00 20.5 20 Noroeste 30 Noroeste 0 -- -- 70
2020-05-22 12:00:00 21.2 8 Noroeste 29 Noroeste 0 -- -- 62
2020-05-22 11:00:00 20.8 2 Norte 19 Sudoeste 0 -- -- 63
2020-05-22 10:00:00 19 8 Sudoeste 28 Sur 0 -- -- 66
2020-05-22 09:00:00 16.5 12 Sudeste 23 Sudeste 0 -- -- 75
2020-05-22 08:00:00 14.5 3 Sudoeste 11 Sudeste 0 -- -- 78
2020-05-22 07:00:00 13.4 10 Sudeste 12 Sudeste 0 -- -- 74
2020-05-22 06:00:00 16.4 0 Calma 8 Este 0 -- -- 58
2020-05-22 05:00:00 16.9 3 Este 10 Noroeste 0 -- -- 54
2020-05-22 04:00:00 17.7 6 Sudeste 12 Sur 0 -- -- 48
2020-05-22 03:00:00 17.6 4 Sur 16 Oeste 0 -- -- 64
2020-05-22 02:00:00 17.6 3 Este 7 Este 0 -- -- 71
2020-05-22 01:00:00 16.6 5 Oeste 9 Noroeste 0 -- -- 81
2020-05-22 00:00:00 17 4 Sudeste 9 Sudeste 0 -- -- 82
2020-05-21 23:00:00 16.1 5 Este 9 Este 0 -- -- 83
2020-05-21 22:00:00 16.7 3 Oeste 13 Nordeste 0 -- -- 79
2020-05-21 21:00:00 17.8 4 Noroeste 20 Noroeste 0 -- -- 76
2020-05-21 20:00:00 20.6 14 Noroeste 22 Noroeste 0 -- -- 73
2020-05-21 19:00:00 22 14 Noroeste 24 Noroeste 0 -- -- 67
2020-05-21 18:00:00 21.8 10 Noroeste 20 Noroeste 0 -- -- 71
2020-05-21 17:00:00 21.7 13 Noroeste 18 Noroeste 0 -- -- 74
2020-05-21 16:00:00 22.5 9 Noroeste 15 Noroeste 0 -- -- 75
2020-05-21 15:00:00 22.3 4 Noroeste 15 Noroeste 0 -- -- 75
2020-05-21 14:00:00 19.9 11 Noroeste 15 Noroeste 0 -- -- 81
2020-05-21 13:00:00 19.6 6 Noroeste 12 Noroeste 0 -- -- 81
2020-05-21 12:00:00 17.8 4 Noroeste 15 Noroeste 0 -- -- 81
2020-05-21 11:00:00 16.6 4 Noroeste 9 Sur 0 -- -- 82
2020-05-21 10:00:00 14 3 Sudeste 8 Noroeste 0 -- -- 100
2020-05-21 09:00:00 10.6 2 Norte 8 Este 0 -- -- 100
2020-05-21 08:00:00 10.3 6 Este 10 Sudeste 0 -- -- 100
2020-05-21 07:00:00 10.3 4 Sur 9 Sudeste 0 -- -- 100
2020-05-21 06:00:00 10.3 2 Norte 8 Norte 0 -- -- 100
2020-05-21 05:00:00 10.4 5 Este 8 Este 0 -- -- 100
2020-05-21 04:00:00 10.6 0 Calma 8 Oeste 0 -- -- 100
2020-05-21 03:00:00 10.7 4 Noroeste 6 Noroeste 0 -- -- 100
2020-05-21 02:00:00 10.7 3 Noroeste 10 Este 0 -- -- 100
2020-05-21 01:00:00 10.9 4 Sudoeste 11 Sudeste 0 -- -- 100
2020-05-21 00:00:00 11.1 8 Noroeste 12 Oeste 0 -- -- 100
2020-05-20 23:00:00 11.4 2 Este 12 Noroeste 0 -- -- 100
2020-05-20 22:00:00 11.4 10 Noroeste 20 Noroeste 0 -- -- 99
2020-05-20 21:00:00 12.6 8 Noroeste 14 Oeste 0 -- -- 93
2020-05-20 20:00:00 12.7 9 Norte 18 Noroeste 0 -- -- 98
2020-05-20 19:00:00 13.5 15 Noroeste 32 Noroeste 0 -- -- 95
2020-05-20 18:00:00 14.8 18 Noroeste 27 Oeste 0 -- -- 91
2020-05-20 17:00:00 17.2 18 Noroeste 29 Noroeste 0 -- -- 84
2020-05-20 16:00:00 20.2 11 Noroeste 18 Noroeste 0 -- -- 74
2020-05-20 15:00:00 19.9 7 Noroeste 18 Noroeste 0 -- -- 77
2020-05-20 14:00:00 19.5 13 Noroeste 20 Noroeste 0 -- -- 73
2020-05-20 13:00:00 20.1 10 Noroeste 18 Noroeste 0 -- -- 67
2020-05-20 12:00:00 20.2 11 Noroeste 15 Noroeste 0 -- -- 67
2020-05-20 11:00:00 19.5 4 Noroeste 10 Noroeste 0 -- -- 73
2020-05-20 10:00:00 18 4 Noroeste 8 Noroeste 0 -- -- 75
2020-05-20 09:00:00 18.5 0 Calma 15 Sudoeste 0 -- -- 67
2020-05-20 08:00:00 17.3 3 Oeste 13 Sudoeste 0 -- -- 71
2020-05-20 07:00:00 16.5 0 Calma 5 Sudoeste 0 -- -- 75
2020-05-20 06:00:00 16.5 4 Sudoeste 7 Sur 0 -- -- 78
2020-05-20 05:00:00 16.6 0 Calma 6 Este 0 -- -- 82
2020-05-20 04:00:00 16.2 4 Este 5 Sudeste 0 -- -- 84
2020-05-20 03:00:00 15.6 2 Sudeste 4 Noroeste 0 -- -- 89
2020-05-20 02:00:00 16.5 3 Oeste 10 Sudoeste 0 -- -- 89
2020-05-20 01:00:00 16.4 0 Calma 6 Sudoeste 0 -- -- 90
2020-05-20 00:00:00 16.5 0 Calma 6 Este 0 -- -- 87
2020-05-19 23:00:00 16.8 0 Calma 4 Sudeste 0 -- -- 90
2020-05-19 22:00:00 17 0 Calma 5 Noroeste 0 -- -- 89
2020-05-19 21:00:00 18.6 0 Calma 9 Noroeste 0 -- -- 84
2020-05-19 20:00:00 19.8 6 Noroeste 10 Noroeste 0 -- -- 79
2020-05-19 19:00:00 21.1 6 Noroeste 15 Noroeste 0 -- -- 78
2020-05-19 18:00:00 21.4 6 Noroeste 16 Noroeste 0 -- -- 77
2020-05-19 17:00:00 21.4 8 Noroeste 17 Noroeste 0 -- -- 79
2020-05-19 16:00:00 20.4 9 Noroeste 18 Noroeste 0 -- -- 81
2020-05-19 15:00:00 20 9 Noroeste 17 Noroeste 0 -- -- 83
2020-05-19 14:00:00 18.9 9 Noroeste 16 Noroeste 0 -- -- 83
2020-05-19 13:00:00 18.2 9 Noroeste 16 Noroeste 0 -- -- 86
2020-05-19 12:00:00 17.1 6 Noroeste 12 Noroeste 0 -- -- 81
2020-05-19 11:00:00 15.2 4 Noroeste 9 Oeste 0 -- -- 87
2020-05-19 10:00:00 13.2 3 Noroeste 7 Sur 0 -- -- 92
2020-05-19 09:00:00 11.4 3 Sudeste 8 Este 0 -- -- 100
2020-05-19 08:00:00 9.9 4 Sur 7 Sudeste 0 -- -- 100
2020-05-19 07:00:00 9.9 2 Este 5 Nordeste 0 -- -- 100
2020-05-19 06:00:00 10 3 Sudeste 6 Sudeste 0 -- -- 100
2020-05-19 05:00:00 10.2 0 Calma 8 Este 0 -- -- 100
2020-05-19 04:00:00 10.7 0 Calma 6 Nordeste 0 -- -- 100
2020-05-19 03:00:00 11.1 4 Este 6 Este 0 -- -- 100
2020-05-19 02:00:00 11.6 2 Sudeste 5 Sudeste 0 -- -- 100
2020-05-19 01:00:00 11.7 3 Noroeste 10 Noroeste 0 -- -- 100
2020-05-19 00:00:00 12.3 3 Sudeste 5 Sudeste 0 -- -- 100
2020-05-18 23:00:00 12.5 0 Calma 5 Sur 0 -- -- 100
2020-05-18 22:00:00 12.7 0 Calma 8 Noroeste 0 -- -- 100
2020-05-18 21:00:00 13.3 3 Noroeste 10 Oeste 0 -- -- 99
2020-05-18 20:00:00 15.3 5 Noroeste 15 Noroeste 0 -- -- 91
2020-05-18 19:00:00 18 6 Noroeste 15 Noroeste 0 -- -- 83
2020-05-18 18:00:00 19.5 6 Noroeste 17 Oeste 0 -- -- 77
2020-05-18 17:00:00 19.8 9 Oeste 19 Noroeste 0 -- -- 77
2020-05-18 16:00:00 19.6 8 Noroeste 17 Noroeste 0 -- -- 81
2020-05-18 15:00:00 18.7 8 Oeste 19 Noroeste 0 -- -- 81
2020-05-18 14:00:00 18.6 9 Noroeste 18 Noroeste 0 -- -- 79
2020-05-18 13:00:00 17.7 10 Noroeste 15 Oeste 0 -- -- 82
2020-05-18 12:00:00 16.8 8 Noroeste 13 Noroeste 0 -- -- 83
2020-05-18 11:00:00 15.9 4 Noroeste 8 Noroeste 0 -- -- 77
2020-05-18 10:00:00 15.1 2 Norte 6 Sur 0 -- -- 76
2020-05-18 09:00:00 14.4 2 Norte 10 Sur 0 -- -- 74
2020-05-18 08:00:00 11.8 3 Sudeste 5 Sudeste 0 -- -- 79
2020-05-18 07:00:00 11.4 4 Este 8 Este 0 -- -- 81
2020-05-18 06:00:00 10.9 2 Este 8 Sudoeste 0 -- -- 87
2020-05-18 05:00:00 11 2 Norte 7 Sudoeste 0 -- -- 90
2020-05-18 04:00:00 11.3 2 Sur 4 Norte 0 -- -- 92
2020-05-18 03:00:00 11 5 Sur 8 Sudoeste 0 -- -- 94
2020-05-18 02:00:00 11.2 2 Sur 4 Sur 0 -- -- 92
2020-05-18 01:00:00 11 4 Sudeste 5 Sur 0 -- -- 95
2020-05-18 00:00:00 11.7 2 Oeste 5 Oeste 0 -- -- 93
2020-05-17 23:00:00 11.1 0 Calma 4 Sudeste 0 -- -- 94
2020-05-17 22:00:00 12 0 Calma 6 Noroeste 0 -- -- 89
2020-05-17 21:00:00 14.1 6 Noroeste 11 Noroeste 0 -- -- 82
2020-05-17 20:00:00 16.7 4 Noroeste 15 Noroeste 0 -- -- 79
2020-05-17 19:00:00 16.9 9 Noroeste 16 Noroeste 0 -- -- 74
2020-05-17 18:00:00 17.4 8 Noroeste 18 Oeste 0 -- -- 75
2020-05-17 17:00:00 18.1 8 Noroeste 18 Noroeste 0 -- -- 76
2020-05-17 16:00:00 18 8 Noroeste 20 Noroeste 0 -- -- 76
2020-05-17 15:00:00 18.2 8 Noroeste 16 Noroeste 0 -- -- 73
2020-05-17 14:00:00 17.5 8 Noroeste 17 Oeste 0 -- -- 76
2020-05-17 13:00:00 16.5 9 Noroeste 20 Noroeste 0 -- -- 81
2020-05-17 12:00:00 14.5 9 Noroeste 17 Oeste 0 -- -- 83
2020-05-17 11:00:00 12.8 7 Noroeste 13 Noroeste 0 -- -- 84
2020-05-17 10:00:00 11.6 5 Noroeste 8 Noroeste 0 -- -- 84
2020-05-17 09:00:00 11 0 Calma 10 Sudoeste 0 -- -- 86
2020-05-17 08:00:00 8.8 3 Sudoeste 6 Sudoeste 0 -- -- 90
2020-05-17 07:00:00 9.2 0 Calma 8 Sur 0 -- -- 87
2020-05-17 06:00:00 10.1 0 Calma 7 Noroeste 0 -- -- 84
2020-05-17 05:00:00 9.6 2 Este 19 Sudeste 0 -- -- 88
2020-05-17 04:00:00 9.8 3 Sur 26 Este 0 -- -- 86
2020-05-17 03:00:00 10.2 21 Este 30 Este 0 -- -- 83
2020-05-17 02:00:00 10.2 6 Sudeste 14 Nordeste 0 -- -- 78
2020-05-17 01:00:00 10.1 11 Este 21 Nordeste 0 -- -- 77
2020-05-17 00:00:00 10.7 14 Este 22 Este 0 -- -- 75
2020-05-16 23:00:00 10.8 12 Nordeste 23 Este 0 -- -- 84
2020-05-16 22:00:00 11 13 Nordeste 27 Nordeste 0 -- -- 94
2020-05-16 21:00:00 12 17 Nordeste 28 Norte 0 -- -- 88
2020-05-16 20:00:00 13.5 17 Nordeste 32 Nordeste 0 -- -- 85
2020-05-16 19:00:00 12.8 19 Nordeste 36 Nordeste 0 -- -- 87
2020-05-16 18:00:00 13.2 24 Nordeste 36 Nordeste 0 -- -- 86
2020-05-16 17:00:00 14.4 21 Nordeste 35 Nordeste 0 -- -- 85
2020-05-16 16:00:00 14.5 20 Nordeste 33 Nordeste 0 -- -- 81
2020-05-16 15:00:00 13.8 19 Nordeste 30 Nordeste 0 -- -- 82
2020-05-16 14:00:00 13.7 18 Norte 32 Norte 0 -- -- 80
2020-05-16 13:00:00 13.5 17 Nordeste 30 Norte 0 -- -- 72
2020-05-16 12:00:00 13.3 18 Nordeste 30 Nordeste 0 -- -- 71
2020-05-16 11:00:00 13.3 13 Este 36 Este 0 -- -- 77
2020-05-16 10:00:00 12.1 13 Este 31 Sudeste 0 -- -- 74
2020-05-16 09:00:00 10.4 16 Este 33 Este 0 -- -- 78
2020-05-16 08:00:00 9.1 14 Este 31 Este 0 -- -- 84
2020-05-16 07:00:00 8.7 18 Este 30 Este 0 -- -- 87
2020-05-16 06:00:00 8.7 12 Nordeste 28 Este 0 -- -- 88
2020-05-16 05:00:00 8.8 18 Este 34 Este 0 -- -- 88
2020-05-16 04:00:00 8.7 16 Este 30 Este 0 -- -- 87
2020-05-16 03:00:00 8.8 13 Nordeste 30 Este 0 -- -- 87
2020-05-16 02:00:00 9.4 16 Este 29 Este 0 -- -- 91
2020-05-16 01:00:00 9.4 16 Nordeste 30 Este 0 -- -- 92
2020-05-16 00:00:00 9.5 18 Este 31 Este 0 -- -- 91
2020-05-15 23:00:00 9.7 15 Nordeste 35 Este 0 -- -- 92
2020-05-15 22:00:00 9.8 21 Nordeste 40 Nordeste 0 -- -- 94
2020-05-15 21:00:00 9.9 26 Nordeste 39 Nordeste 0 -- -- 92
2020-05-15 20:00:00 10 22 Nordeste 39 Nordeste 0 -- -- 93
2020-05-15 19:00:00 9.9 26 Nordeste 40 Nordeste 0 -- -- 95
2020-05-15 18:00:00 10.1 24 Nordeste 35 Nordeste 0 -- -- 94
2020-05-15 17:00:00 10.2 13 Nordeste 29 Nordeste 0 -- -- 92
2020-05-15 16:00:00 10.2 17 Nordeste 30 Nordeste 0 -- -- 92
2020-05-15 15:00:00 10.3 19 Nordeste 31 Nordeste 0 -- -- 90
2020-05-15 14:00:00 10.8 16 Nordeste 32 Nordeste 0 -- -- 90
2020-05-15 13:00:00 10.4 23 Nordeste 37 Este 0 -- -- 91
2020-05-15 12:00:00 10.7 22 Nordeste 36 Nordeste 0 -- -- 92
2020-05-15 11:00:00 10.5 22 Nordeste 38 Nordeste 0.2 -- -- 94
2020-05-15 10:00:00 9.6 15 Este 39 Este 0.2 -- -- 99
2020-05-15 09:00:00 9.3 25 Nordeste 42 Nordeste 1 -- -- 99
2020-05-15 08:00:00 9.4 16 Este 37 Nordeste 0.4 -- -- 99
2020-05-15 07:00:00 9.4 24 Este 37 Este 0 -- -- 99
2020-05-15 06:00:00 9.4 28 Este 45 Nordeste 0.2 -- -- 99
2020-05-15 05:00:00 9.6 26 Este 38 Este 0.2 -- -- 100
2020-05-15 04:00:00 9.6 15 Nordeste 21 Nordeste 0.6 -- -- 100
2020-05-15 03:00:00 9.6 13 Nordeste 30 Nordeste 0.2 -- -- 99
2020-05-15 02:00:00 9.7 18 Nordeste 30 Nordeste 0.6 -- -- 99
2020-05-15 01:00:00 9.6 14 Nordeste 29 Este 0 -- -- 100
2020-05-15 00:00:00 9.5 16 Nordeste 28 Nordeste 0 -- -- 100
2020-05-14 23:00:00 9.4 21 Este 34 Este 0.2 -- -- 100
2020-05-14 22:00:00 9.4 21 Nordeste 35 Nordeste 0.4 -- -- 100
2020-05-14 21:00:00 9.6 21 Nordeste 34 Nordeste 0.6 -- -- 100
2020-05-14 20:00:00 9.6 19 Nordeste 36 Nordeste 0.2 -- -- 100
2020-05-14 19:00:00 9.8 22 Nordeste 40 Nordeste 0.2 -- -- 100
2020-05-14 18:00:00 9.9 20 Nordeste 36 Nordeste 0.2 -- -- 100
2020-05-14 17:00:00 10 24 Nordeste 36 Nordeste 0.4 -- -- 100
2020-05-14 16:00:00 10.2 23 Nordeste 37 Nordeste 0.2 -- -- 100
2020-05-14 15:00:00 10.5 20 Nordeste 36 Nordeste 0.2 -- -- 100
2020-05-14 14:00:00 10.5 24 Nordeste 42 Nordeste 0.2 -- -- 98
2020-05-14 13:00:00 10.7 24 Nordeste 41 Nordeste 0 -- -- 99
2020-05-14 12:00:00 10.3 21 Nordeste 42 Nordeste 0.2 -- -- 100
2020-05-14 11:00:00 10 26 Nordeste 42 Nordeste 0.2 -- -- 100
2020-05-14 10:00:00 10 16 Nordeste 37 Nordeste 0 -- -- 100
2020-05-14 09:00:00 10 19 Nordeste 36 Nordeste 0 -- -- 100
2020-05-14 08:00:00 10.1 22 Este 36 Este 0 -- -- 100
2020-05-14 07:00:00 10.3 18 Este 40 Este 0.2 -- -- 100
2020-05-14 06:00:00 10.1 14 Nordeste 39 Este 0 -- -- 100
2020-05-14 05:00:00 10.2 20 Nordeste 33 Este 0 -- -- 100
2020-05-14 04:00:00 10.5 15 Nordeste 27 Nordeste 0 -- -- 100
2020-05-14 03:00:00 11.1 13 Nordeste 36 Nordeste 0 -- -- 97
2020-05-14 02:00:00 11.2 12 Nordeste 28 Este 0 -- -- 95
2020-05-14 01:00:00 11.1 14 Nordeste 33 Este 0 -- -- 97
2020-05-14 00:00:00 11.2 14 Nordeste 27 Nordeste 0 -- -- 96
2020-05-13 23:00:00 11.3 15 Nordeste 29 Nordeste 0 -- -- 96
2020-05-13 22:00:00 11.2 18 Nordeste 27 Nordeste 0 -- -- 98
2020-05-13 21:00:00 11.7 9 Nordeste 20 Nordeste 0 -- -- 97
2020-05-13 20:00:00 11.9 9 Nordeste 23 Este 0 -- -- 97
2020-05-13 19:00:00 11.7 17 Este 23 Este 0 -- -- 98
2020-05-13 18:00:00 12.4 9 Norte 26 Nordeste 0 -- -- 95
2020-05-13 17:00:00 12.6 14 Nordeste 24 Nordeste 0 -- -- 94
2020-05-13 16:00:00 12.9 10 Este 19 Este 0 -- -- 94
2020-05-13 15:00:00 12.8 11 Este 17 Este 0 -- -- 92
2020-05-13 14:00:00 12.5 4 Noroeste 10 Oeste 0 -- -- 97
2020-05-13 13:00:00 12.5 0 Calma 10 Noroeste 0 -- -- 95
2020-05-13 12:00:00 12.1 7 Noroeste 13 Noroeste 0 -- -- 96
2020-05-13 11:00:00 11.6 3 Noroeste 6 Noroeste 0 -- -- 99
2020-05-13 10:00:00 10.3 2 Noroeste 6 Oeste 0 -- -- 100
2020-05-13 09:00:00 10.1 4 Este 14 Este 0 -- -- 96
2020-05-13 08:00:00 9.4 9 Este 18 Este 0 -- -- 98
2020-05-13 07:00:00 9.5 9 Este 17 Este 0 -- -- 97
2020-05-13 06:00:00 9.4 8 Este 13 Este 0 -- -- 97
2020-05-13 05:00:00 9.3 8 Este 14 Nordeste 0 -- -- 98
2020-05-13 04:00:00 9.5 9 Este 22 Este 0 -- -- 97
2020-05-13 03:00:00 9.4 18 Este 28 Este 0 -- -- 98
2020-05-13 02:00:00 9.2 18 Este 26 Este 0 -- -- 100
2020-05-13 01:00:00 9 16 Este 26 Este 0 -- -- 100
2020-05-13 00:00:00 9.2 19 Este 30 Este 0 -- -- 99
2020-05-12 23:00:00 9.5 17 Este 26 Este 0 -- -- 98
2020-05-12 22:00:00 9.4 15 Este 31 Este 0 -- -- 100
2020-05-12 21:00:00 9.6 22 Este 32 Este 0 -- -- 98
2020-05-12 20:00:00 9.8 23 Este 39 Este 0 -- -- 98
2020-05-12 19:00:00 10.1 26 Este 36 Este 0.4 -- -- 98
2020-05-12 18:00:00 10 18 Este 32 Este 0 -- -- 96
2020-05-12 17:00:00 10.9 22 Este 32 Este 0 -- -- 94
2020-05-12 16:00:00 11.8 22 Este 37 Este 0 -- -- 93
2020-05-12 15:00:00 12.4 24 Este 33 Este 0 -- -- 92
2020-05-12 14:00:00 12.6 22 Este 33 Este 0 -- -- 90
2020-05-12 13:00:00 11.8 22 Este 35 Este 0 -- -- 94
2020-05-12 12:00:00 11.8 17 Este 37 Este 0 -- -- 97
2020-05-12 11:00:00 10.7 13 Nordeste 31 Este 0 -- -- 99
2020-05-12 10:00:00 10.6 21 Este 36 Este 0 -- -- 98
2020-05-12 09:00:00 10.2 22 Este 36 Este 0 -- -- 100
2020-05-12 08:00:00 10.1 15 Nordeste 32 Este 0 -- -- 100
2020-05-12 07:00:00 10.2 19 Este 36 Este 0 -- -- 100
2020-05-12 06:00:00 10.1 27 Este 36 Este 0 -- -- 100
2020-05-12 05:00:00 10.3 25 Este 38 Este 0 -- -- 100
2020-05-12 04:00:00 10.6 23 Este 33 Este 0 -- -- 99
2020-05-12 03:00:00 10.8 11 Nordeste 26 Este 0 -- -- 100
2020-05-12 02:00:00 10.7 10 Nordeste 22 Nordeste 0 -- -- 100
2020-05-12 01:00:00 10.7 11 Nordeste 21 Nordeste 0 -- -- 100
2020-05-12 00:00:00 10.9 13 Nordeste 24 Este 0 -- -- 100
2020-05-11 23:00:00 10.8 12 Nordeste 32 Este 0 -- -- 100
2020-05-11 22:00:00 10.9 21 Este 31 Este 0 -- -- 100
2020-05-11 21:00:00 11.4 10 Nordeste 28 Este 0 -- -- 100
2020-05-11 20:00:00 11.7 14 Este 28 Este 0 -- -- 100
2020-05-11 19:00:00 12.2 17 Nordeste 25 Este 0 -- -- 98
2020-05-11 18:00:00 14.4 13 Nordeste 26 Noroeste 0 -- -- 85
2020-05-11 17:00:00 14.8 19 Noroeste 27 Noroeste 0 -- -- 85
2020-05-11 16:00:00 14.8 19 Noroeste 32 Noroeste 0 -- -- 84
2020-05-11 15:00:00 16.1 19 Noroeste 27 Noroeste 0 -- -- 70
2020-05-11 14:00:00 15.6 10 Noroeste 19 Noroeste 0 -- -- 75
2020-05-11 13:00:00 15 9 Noroeste 20 Noroeste 0 -- -- 78
2020-05-11 12:00:00 13.2 14 Noroeste 20 Noroeste 0 -- -- 89
2020-05-11 11:00:00 13.6 9 Noroeste 13 Noroeste 0 -- -- 87
2020-05-11 10:00:00 12.4 2 Noroeste 6 Noroeste 0 -- -- 91
2020-05-11 09:00:00 10.9 5 Noroeste 8 Sur 0 -- -- 95
2020-05-11 08:00:00 9.8 4 Sur 9 Sur 0 -- -- 96
2020-05-11 07:00:00 9.7 4 Sudoeste 9 Sudoeste 0 -- -- 96
2020-05-11 06:00:00 10.2 3 Este 7 Este 0 -- -- 92
2020-05-11 05:00:00 10.2 4 Sur 6 Sudeste 0 -- -- 92
2020-05-11 04:00:00 10.3 7 Este 9 Este 0 -- -- 94
2020-05-11 03:00:00 10.8 4 Sudeste 10 Este 0 -- -- 90
2020-05-11 02:00:00 11.2 3 Este 13 Este 0 -- -- 93
2020-05-11 01:00:00 11 8 Este 10 Este 0 -- -- 100
2020-05-11 00:00:00 11.1 0 Calma 4 Oeste 0 -- -- 100
2020-05-10 23:00:00 11.4 0 Calma 4 Noroeste 0 -- -- 100
2020-05-10 22:00:00 11.5 2 Oeste 8 Oeste 0 -- -- 99
2020-05-10 21:00:00 12.1 2 Oeste 15 Noroeste 0 -- -- 99
2020-05-10 20:00:00 12.2 9 Noroeste 20 Noroeste 0 -- -- 98
2020-05-10 19:00:00 13 14 Noroeste 20 Noroeste 0 -- -- 94
2020-05-10 18:00:00 14.7 5 Noroeste 9 Noroeste 0 -- -- 88
2020-05-10 17:00:00 14.1 4 Noroeste 11 Noroeste 0 -- -- 88
2020-05-10 16:00:00 13.5 8 Noroeste 14 Noroeste 0 -- -- 91
2020-05-10 15:00:00 13.4 9 Noroeste 14 Noroeste 0 -- -- 92
2020-05-10 14:00:00 13.1 8 Noroeste 11 Noroeste 0 -- -- 93
2020-05-10 13:00:00 12.9 7 Noroeste 11 Noroeste 0 -- -- 94
2020-05-10 12:00:00 12.3 3 Noroeste 13 Sudoeste 0 -- -- 98
2020-05-10 11:00:00 12.4 5 Sudoeste 12 Sudoeste 0.8 -- -- 100
2020-05-10 10:00:00 10.7 0 Calma 5 Sur 4.2 -- -- 100
2020-05-10 09:00:00 10.6 2 Sudoeste 10 Sudoeste 3.8 -- -- 100
2020-05-10 08:00:00 10.9 4 Oeste 9 Sur 0.2 -- -- 100
2020-05-10 07:00:00 10.9 2 Sudeste 3 Oeste 1.4 -- -- 99
2020-05-10 06:00:00 11 0 Calma 8 Este 1.8 -- -- 98
2020-05-10 05:00:00 10.8 4 Sudeste 6 Sudeste 1 -- -- 99
2020-05-10 04:00:00 11.1 2 Este 5 Noroeste 0 -- -- 96
2020-05-10 03:00:00 11.3 5 Noroeste 6 Noroeste 0 -- -- 97
2020-05-10 02:00:00 11.9 0 Calma 5 Nordeste 0 -- -- 92
2020-05-10 01:00:00 11.9 2 Este 14 Sudoeste 1.2 -- -- 94
2020-05-10 00:00:00 12.2 2 Sur 6 Sur 0.2 -- -- 91
2020-05-09 23:00:00 12.3 2 Este 10 Este 0 -- -- 89
2020-05-09 22:00:00 12.2 5 Este 23 Este 0 -- -- 94
2020-05-09 21:00:00 12.3 13 Este 21 Este 0 -- -- 95
2020-05-09 20:00:00 12.6 0 Calma 7 Este 0 -- -- 100
2020-05-09 19:00:00 11.9 3 Norte 14 Noroeste 3.8 -- -- 100
2020-05-09 18:00:00 12.4 11 Este 23 Este 3.6 -- -- 100
2020-05-09 17:00:00 12.9 15 Nordeste 22 Nordeste 0 -- -- 100
2020-05-09 16:00:00 13.7 10 Nordeste 24 Este 0 -- -- 100
2020-05-09 15:00:00 14.4 14 Este 25 Este 0 -- -- 98
2020-05-09 14:00:00 14.1 12 Nordeste 26 Este 0 -- -- 99
2020-05-09 13:00:00 15 12 Este 22 Este 0 -- -- 97
2020-05-09 12:00:00 13.4 14 Este 21 Este 0 -- -- 100
2020-05-09 11:00:00 13.1 0 Calma 4 Noroeste 0 -- -- 100
2020-05-09 10:00:00 12.7 3 Noroeste 6 Noroeste 0 -- -- 100
2020-05-09 09:00:00 12.5 3 Norte 4 Nordeste 0 -- -- 100
2020-05-09 08:00:00 12.3 0 Calma 4 Noroeste 0 -- -- 100
2020-05-09 07:00:00 12.2 2 Noroeste 4 Noroeste 0.2 -- -- 100
2020-05-09 06:00:00 12.2 0 Calma 3 Sudeste 0 -- -- 100
2020-05-09 05:00:00 12.1 0 Calma 5 Sudoeste 0 -- -- 100
2020-05-09 04:00:00 12.5 0 Calma 13 Oeste 0 -- -- 100
2020-05-09 03:00:00 14.2 0 Calma 8 Oeste 0 -- -- 90
2020-05-09 02:00:00 14.5 0 Calma 10 Sudeste 0 -- -- 89
2020-05-09 01:00:00 14.2 9 Sur 13 Sur 0 -- -- 93
2020-05-09 00:00:00 14.1 5 Este 12 Sur 0 -- -- 91
2020-05-08 23:00:00 14 4 Noroeste 19 Sudeste 0 -- -- 96
2020-05-08 22:00:00 13.8 0 Calma 18 Este 0.2 -- -- 99
2020-05-08 21:00:00 14.1 14 Este 21 Este 2 -- -- 100
2020-05-08 20:00:00 12.4 6 Nordeste 27 Oeste 1.6 -- -- 100
2020-05-08 19:00:00 13.2 11 Noroeste 16 Noroeste 0 -- -- 100
2020-05-08 18:00:00 14.5 10 Noroeste 17 Noroeste 0 -- -- 100
2020-05-08 17:00:00 15 6 Noroeste 12 Noroeste 0 -- -- 100
2020-05-08 16:00:00 14.1 6 Noroeste 11 Noroeste 0 -- -- 100
2020-05-08 15:00:00 14.7 8 Noroeste 14 Noroeste 0 -- -- 99
2020-05-08 14:00:00 14.8 8 Noroeste 13 Noroeste 0 -- -- 100
2020-05-08 13:00:00 14.3 5 Noroeste 10 Noroeste 0 -- -- 100
2020-05-08 12:00:00 13.7 5 Noroeste 10 Noroeste 0 -- -- 100
2020-05-08 11:00:00 13.9 5 Noroeste 12 Noroeste 0 -- -- 100
2020-05-08 10:00:00 16.2 4 Oeste 12 Sudoeste 0 -- -- 91
2020-05-08 09:00:00 14.3 4 Sur 13 Este 0 -- -- 99
2020-05-08 08:00:00 12.9 9 Sudeste 30 Oeste 0.2 -- -- 100
2020-05-08 07:00:00 12.7 11 Sudeste 18 Este 0.6 -- -- 100
2020-05-08 06:00:00 12.2 3 Este 23 Oeste 3.2 -- -- 100
2020-05-08 05:00:00 12.1 4 Sudeste 8 Sudeste 0 -- -- 100
2020-05-08 04:00:00 12.2 4 Sur 9 Este 0 -- -- 100
2020-05-08 03:00:00 12.3 3 Sudeste 14 Noroeste 0 -- -- 100
2020-05-08 02:00:00 12.3 8 Noroeste 14 Oeste 1.2 -- -- 100
2020-05-08 01:00:00 12.3 4 Este 8 Sudeste 2.6 -- -- 100
2020-05-08 00:00:00 12.4 0 Calma 10 Noroeste 0 -- -- 100
2020-05-07 23:00:00 12.3 2 Sudeste 5 Noroeste 0 -- -- 100
2020-05-07 22:00:00 12.9 4 Este 9 Oeste 0 -- -- 100
2020-05-07 21:00:00 13.3 16 Oeste 27 Oeste 0 -- -- 99
2020-05-07 20:00:00 14.5 5 Noroeste 14 Noroeste 0 -- -- 94
2020-05-07 19:00:00 16.7 8 Noroeste 18 Noroeste 0 -- -- 86
2020-05-07 18:00:00 17.6 13 Noroeste 19 Noroeste 0 -- -- 84
2020-05-07 17:00:00 17.3 10 Noroeste 20 Noroeste 0 -- -- 85
2020-05-07 16:00:00 17.6 13 Noroeste 21 Noroeste 0 -- -- 85
2020-05-07 15:00:00 17.3 10 Oeste 18 Noroeste 0 -- -- 85
2020-05-07 14:00:00 17.2 11 Noroeste 22 Noroeste 0 -- -- 85
2020-05-07 13:00:00 16.6 8 Noroeste 17 Noroeste 0 -- -- 86
2020-05-07 12:00:00 16 6 Noroeste 13 Noroeste 0 -- -- 84
2020-05-07 11:00:00 15 7 Noroeste 11 Noroeste 0 -- -- 80
2020-05-07 10:00:00 14.5 4 Noroeste 8 Este 0 -- -- 79
2020-05-07 09:00:00 13.6 3 Sudeste 5 Sur 0 -- -- 82
2020-05-07 08:00:00 12 2 Este 4 Este 0 -- -- 82
2020-05-07 07:00:00 11.7 3 Sur 6 Noroeste 0 -- -- 83
2020-05-07 06:00:00 12.6 2 Oeste 8 Este 0 -- -- 79
2020-05-07 05:00:00 13.1 3 Norte 8 Este 0 -- -- 77
2020-05-07 04:00:00 13.1 2 Nordeste 6 Nordeste 0 -- -- 76
2020-05-07 03:00:00 13.1 3 Sudeste 6 Sur 0 -- -- 75
2020-05-07 02:00:00 13.2 2 Nordeste 6 Nordeste 0 -- -- 75
2020-05-07 01:00:00 12.8 5 Este 11 Este 0 -- -- 77
2020-05-07 00:00:00 12.8 9 Este 16 Nordeste 0 -- -- 77
2020-05-06 23:00:00 12.7 5 Nordeste 13 Sudeste 0 -- -- 79
2020-05-06 22:00:00 13.4 7 Este 22 Nordeste 0 -- -- 80
2020-05-06 21:00:00 15.5 5 Este 18 Nordeste 0 -- -- 69
2020-05-06 20:00:00 17.2 11 Nordeste 26 Este 0 -- -- 62
2020-05-06 19:00:00 17.2 21 Este 30 Este 0 -- -- 63
2020-05-06 18:00:00 18.8 17 Este 32 Sudeste 0 -- -- 60
2020-05-06 17:00:00 19.5 14 Este 32 Este 0 -- -- 59
2020-05-06 16:00:00 18.7 24 Este 34 Este 0 -- -- 58
2020-05-06 15:00:00 20.5 8 Nordeste 23 Sudeste 0 -- -- 61
2020-05-06 14:00:00 19.2 14 Noroeste 24 Noroeste 0 -- -- 67
2020-05-06 13:00:00 18.6 9 Norte 15 Norte 0 -- -- 74
2020-05-06 12:00:00 18.6 8 Noroeste 14 Noroeste 0 -- -- 67
2020-05-06 11:00:00 16.7 9 Noroeste 21 Este 0 -- -- 70
2020-05-06 10:00:00 15.8 3 Noroeste 9 Sur 0 -- -- 71
2020-05-06 09:00:00 13.2 8 Sur 15 Sur 0 -- -- 77
2020-05-06 08:00:00 12.8 4 Este 12 Sudoeste 0 -- -- 77
2020-05-06 07:00:00 12.6 0 Calma 8 Sudoeste 0 -- -- 77
2020-05-06 06:00:00 12.4 4 Sudeste 9 Este 0 -- -- 80
2020-05-06 05:00:00 12.9 7 Sur 14 Sudoeste 0 -- -- 78
2020-05-06 04:00:00 14.1 3 Sudeste 9 Este 0 -- -- 72
2020-05-06 03:00:00 14.5 0 Calma 6 Sudeste 0 -- -- 70
2020-05-06 02:00:00 14.7 5 Este 8 Este 0 -- -- 70
2020-05-06 01:00:00 15.5 5 Sudoeste 10 Oeste 0 -- -- 68
2020-05-06 00:00:00 15.6 2 Sudeste 9 Este 0 -- -- 69
2020-05-05 23:00:00 15.5 0 Calma 25 Noroeste 0 -- -- 72
2020-05-05 22:00:00 17.5 4 Oeste 20 Sudoeste 0 -- -- 54
2020-05-05 21:00:00 18.7 4 Sudoeste 21 Sur 0 -- -- 52
2020-05-05 20:00:00 19.5 3 Noroeste 23 Sudoeste 0 -- -- 58
2020-05-05 19:00:00 19.1 4 Noroeste 17 Noroeste 0 -- -- 60
2020-05-05 18:00:00 18.6 15 Noroeste 30 Noroeste 0 -- -- 63
2020-05-05 17:00:00 22.4 9 Sudoeste 35 Sur 0 -- -- 40
2020-05-05 16:00:00 22.6 9 Oeste 25 Sudoeste 0 -- -- 42
2020-05-05 15:00:00 19.9 8 Sudoeste 39 Sudoeste 0 -- -- 49
2020-05-05 14:00:00 19.5 8 Sudoeste 23 Sur 0 -- -- 48
2020-05-05 13:00:00 20 11 Sur 37 Sur 0 -- -- 51
2020-05-05 12:00:00 18.4 8 Noroeste 19 Oeste 0 -- -- 58
2020-05-05 11:00:00 18.3 4 Noroeste 12 Sudeste 0 -- -- 57
2020-05-05 10:00:00 16.3 5 Sudoeste 13 Sudoeste 0 -- -- 62
2020-05-05 09:00:00 14.3 9 Sur 18 Sur 0 -- -- 64
2020-05-05 08:00:00 13.4 4 Sudeste 15 Sur 0 -- -- 61
2020-05-05 07:00:00 13.2 4 Noroeste 31 Sur 0 -- -- 66
2020-05-05 06:00:00 13 5 Sudoeste 30 Sudoeste 0 -- -- 68
2020-05-05 05:00:00 14 11 Sudoeste 43 Sudoeste 0 -- -- 65
2020-05-05 04:00:00 14.6 14 Sudoeste 44 Sudoeste 0 -- -- 63
2020-05-05 03:00:00 14.9 9 Sudoeste 36 Sur 0 -- -- 62
2020-05-05 02:00:00 15.6 7 Sudoeste 32 Sur 0 -- -- 58
2020-05-05 01:00:00 16 13 Sudeste 42 Sudoeste 0 -- -- 55
2020-05-05 00:00:00 15.7 17 Sur 49 Sur 0 -- -- 58
2020-05-04 23:00:00 16.4 17 Sudoeste 41 Sur 0 -- -- 58
2020-05-04 22:00:00 16.5 17 Sur 39 Sudoeste 0 -- -- 60
2020-05-04 21:00:00 17.1 13 Sudoeste 44 Sur 0 -- -- 67
2020-05-04 20:00:00 17.3 18 Sudoeste 50 Sudoeste 0 -- -- 69
2020-05-04 19:00:00 16.4 13 Sur 67 Sur 0.6 -- -- 75
2020-05-04 18:00:00 14.7 24 Sudoeste 74 Sudoeste 5.8 -- -- 84
2020-05-04 17:00:00 25.3 23 Sur 88 Sudeste 0 -- -- 49
2020-05-04 16:00:00 23.6 27 Sur 55 Sur 0 -- -- 48
2020-05-04 15:00:00 25.2 26 Sur 64 Sudeste 0 -- -- 40
2020-05-04 14:00:00 26.4 8 Noroeste 16 Noroeste 0 -- -- 60
2020-05-04 13:00:00 27 13 Noroeste 19 Noroeste 0 -- -- 46
2020-05-04 12:00:00 27.2 3 Norte 25 Este 0 -- -- 49
2020-05-04 11:00:00 27.4 19 Este 38 Este 0 -- -- 41
2020-05-04 10:00:00 25.4 26 Este 40 Sudeste 0 -- -- 44
2020-05-04 09:00:00 24.1 32 Sudeste 61 Sudeste 0 -- -- 46
2020-05-04 08:00:00 23.2 46 Sudeste 64 Sudeste 0 -- -- 45
2020-05-04 07:00:00 23.2 37 Sudeste 53 Sudeste 0 -- -- 45
2020-05-04 06:00:00 23.3 30 Sudeste 45 Sudeste 0 -- -- 45
2020-05-04 05:00:00 22.1 8 Sudeste 22 Sudeste 0 -- -- 50
2020-05-04 04:00:00 18.5 6 Sudoeste 20 Sudoeste 0 -- -- 68
2020-05-04 03:00:00 19 9 Sudoeste 16 Sudoeste 0 -- -- 69
2020-05-04 02:00:00 19.4 5 Sur 15 Nordeste 0 -- -- 67
2020-05-04 01:00:00 20.8 4 Noroeste 14 Sur 0 -- -- 64
2020-05-04 00:00:00 20.4 3 Este 9 Norte 0 -- -- 59
2020-05-03 23:00:00 20.5 5 Norte 13 Nordeste 0 -- -- 60
2020-05-03 22:00:00 20.7 4 Nordeste 14 Nordeste 0 -- -- 63
2020-05-03 21:00:00 19.7 0 Calma 9 Este 0 -- -- 78
2020-05-03 20:00:00 19.8 4 Noroeste 10 Noroeste 0 -- -- 83
2020-05-03 19:00:00 20.3 4 Noroeste 16 Noroeste 0 -- -- 81
2020-05-03 18:00:00 20.8 8 Noroeste 14 Noroeste 0 -- -- 81
2020-05-03 17:00:00 20.8 7 Noroeste 17 Noroeste 0 -- -- 79
2020-05-03 16:00:00 20.5 13 Noroeste 20 Noroeste 0 -- -- 78
2020-05-03 15:00:00 20.6 9 Noroeste 16 Noroeste 0 -- -- 79
2020-05-03 14:00:00 20 8 Noroeste 15 Noroeste 0 -- -- 79
2020-05-03 13:00:00 18.4 10 Noroeste 17 Noroeste 0 -- -- 83
2020-05-03 12:00:00 17.3 8 Noroeste 12 Oeste 0 -- -- 88
2020-05-03 11:00:00 16.1 5 Noroeste 9 Noroeste 0 -- -- 87
2020-05-03 10:00:00 15.3 3 Norte 10 Oeste 0 -- -- 86
2020-05-03 09:00:00 14.8 0 Calma 10 Sudoeste 0 -- -- 87
2020-05-03 08:00:00 12.4 4 Oeste 8 Sudoeste 0 -- -- 94
2020-05-03 07:00:00 12.4 5 Sudoeste 9 Sudoeste 0 -- -- 93
2020-05-03 06:00:00 13.2 0 Calma 6 Sudoeste 0 -- -- 90
2020-05-03 05:00:00 13.5 4 Sudeste 6 Este 0 -- -- 88
2020-05-03 04:00:00 14.4 0 Calma 7 Este 0 -- -- 85
2020-05-03 03:00:00 14.4 5 Este 8 Este 0 -- -- 84
2020-05-03 02:00:00 15 4 Este 8 Sur 0 -- -- 82
2020-05-03 01:00:00 14.7 3 Este 7 Sur 0 -- -- 84
2020-05-03 00:00:00 14.3 2 Nordeste 6 Este 0 -- -- 90
2020-05-02 23:00:00 14.1 0 Calma 13 Oeste 0 -- -- 95
2020-05-02 22:00:00 15.5 4 Este 9 Este 0 -- -- 89
2020-05-02 21:00:00 15.9 0 Calma 7 Sur 0 -- -- 89
2020-05-02 20:00:00 16.5 4 Sudoeste 21 Noroeste 0 -- -- 87
2020-05-02 19:00:00 19.8 12 Noroeste 25 Noroeste 0 -- -- 71
2020-05-02 18:00:00 20.5 14 Noroeste 24 Noroeste 0 -- -- 66
2020-05-02 17:00:00 20.6 8 Noroeste 25 Noroeste 0 -- -- 64
2020-05-02 16:00:00 20.7 11 Sudoeste 28 Sudoeste 0 -- -- 65
2020-05-02 15:00:00 20.3 13 Noroeste 24 Sur 0 -- -- 60
2020-05-02 14:00:00 19.9 6 Oeste 29 Sudoeste 0 -- -- 68
2020-05-02 13:00:00 18.3 17 Sudoeste 37 Sudoeste 0 -- -- 73
2020-05-02 12:00:00 17.2 12 Oeste 31 Sudoeste 0 -- -- 77
2020-05-02 11:00:00 16.7 11 Oeste 41 Sur 0 -- -- 76
2020-05-02 10:00:00 16.9 15 Sudoeste 37 Sudoeste 0 -- -- 76
2020-05-02 09:00:00 16.8 9 Oeste 32 Sudoeste 0 -- -- 78
2020-05-02 08:00:00 15.5 12 Sudoeste 33 Sudoeste 0 -- -- 82
2020-05-02 07:00:00 15.8 14 Oeste 36 Oeste 0 -- -- 81
2020-05-02 06:00:00 15.8 14 Sudoeste 41 Sudoeste 0 -- -- 80
2020-05-02 05:00:00 15.8 22 Sudoeste 44 Sudoeste 0 -- -- 80
2020-05-02 04:00:00 15.9 14 Sudoeste 44 Sudoeste 0 -- -- 80
2020-05-02 03:00:00 16 19 Sudoeste 49 Sudoeste 0 -- -- 80
2020-05-02 02:00:00 16.2 14 Oeste 45 Sudoeste 0 -- -- 80
2020-05-02 01:00:00 16.4 11 Noroeste 36 Sudoeste 0 -- -- 80
2020-05-02 00:00:00 16.6 9 Noroeste 43 Sudoeste 0 -- -- 80